sensor_id;sensor_type;location;lat;lon;timestamp;pressure;altitude;pressure_sealevel;temperature;humidity
41688;BME280;27371;42.686;23.362;2022-11-11T00:02:01;164156.78;;;7.52;82.96
41688;BME280;27371;42.686;23.362;2022-11-11T00:04:26;164158.13;;;7.52;83.03
41688;BME280;27371;42.686;23.362;2022-11-11T00:06:52;164139.47;;;7.45;82.66
41688;BME280;27371;42.686;23.362;2022-11-11T00:09:18;164182.16;;;7.62;82.79
41688;BME280;27371;42.686;23.362;2022-11-11T00:11:43;164190.16;;;7.65;82.89
41688;BME280;27371;42.686;23.362;2022-11-11T00:14:10;164178.13;;;7.60;82.63
41688;BME280;27371;42.686;23.362;2022-11-11T00:16:35;164192.81;;;7.66;82.76
41688;BME280;27371;42.686;23.362;2022-11-11T00:19:19;164191.47;;;7.65;82.64
41688;BME280;27371;42.686;23.362;2022-11-11T00:22:03;164191.47;;;7.65;82.79
41688;BME280;27371;42.686;23.362;2022-11-11T00:24:48;164188.84;;;7.64;82.96
41688;BME280;27371;42.686;23.362;2022-11-11T00:27:31;164188.84;;;7.64;83.10
41688;BME280;27371;42.686;23.362;2022-11-11T00:29:57;164182.16;;;7.62;83.27
41688;BME280;27371;42.686;23.362;2022-11-11T00:32:22;164179.47;;;7.61;83.61
41688;BME280;27371;42.686;23.362;2022-11-11T00:34:56;164180.84;;;7.61;83.84
41688;BME280;27371;42.686;23.362;2022-11-11T00:37:42;164196.84;;;7.67;83.98
41688;BME280;27371;42.686;23.362;2022-11-11T00:40:09;164186.13;;;7.63;83.84
41688;BME280;27371;42.686;23.362;2022-11-11T00:42:35;164203.50;;;7.70;83.79
41688;BME280;27371;42.686;23.362;2022-11-11T00:45:01;164207.47;;;7.71;83.65
41688;BME280;27371;42.686;23.362;2022-11-11T00:47:26;164184.81;;;7.63;83.62
41688;BME280;27371;42.686;23.362;2022-11-11T00:52:55;164198.16;;;7.68;83.54
41688;BME280;27371;42.686;23.362;2022-11-11T00:55:24;164184.81;;;7.63;83.76
41688;BME280;27371;42.686;23.362;2022-11-11T00:57:49;164188.84;;;7.64;84.02
41688;BME280;27371;42.686;23.362;2022-11-11T01:00:15;164174.16;;;7.58;84.31
41688;BME280;27371;42.686;23.362;2022-11-11T01:02:40;164188.84;;;7.64;84.10
41688;BME280;27371;42.686;23.362;2022-11-11T01:05:06;164196.84;;;7.67;84.38
41688;BME280;27371;42.686;23.362;2022-11-11T01:07:32;164198.16;;;7.68;84.44
41688;BME280;27371;42.686;23.362;2022-11-11T01:09:57;164211.50;;;7.73;84.79
41688;BME280;27371;42.686;23.362;2022-11-11T01:12:23;164214.16;;;7.74;84.34
41688;BME280;27371;42.686;23.362;2022-11-11T01:14:48;164208.81;;;7.72;84.53
41688;BME280;27371;42.686;23.362;2022-11-11T01:17:14;164231.53;;;7.80;84.90
41688;BME280;27371;42.686;23.362;2022-11-11T01:19:39;164238.19;;;7.83;84.85
41688;BME280;27371;42.686;23.362;2022-11-11T01:22:04;164248.84;;;7.87;85.01
41688;BME280;27371;42.686;23.362;2022-11-11T01:24:30;164252.88;;;7.89;84.91
41688;BME280;27371;42.686;23.362;2022-11-11T01:26:55;164268.88;;;7.95;84.97
41688;BME280;27371;42.686;23.362;2022-11-11T01:29:21;164275.53;;;7.97;84.67
41688;BME280;27371;42.686;23.362;2022-11-11T01:31:46;164272.84;;;7.96;84.85
41688;BME280;27371;42.686;23.362;2022-11-11T01:34:12;164282.22;;;8.00;84.64
41688;BME280;27371;42.686;23.362;2022-11-11T01:36:37;164286.19;;;8.01;84.81
41688;BME280;27371;42.686;23.362;2022-11-11T01:39:03;164282.22;;;8.00;84.58
41688;BME280;27371;42.686;23.362;2022-11-11T01:41:34;164278.19;;;7.98;84.24
41688;BME280;27371;42.686;23.362;2022-11-11T01:55:34;164263.53;;;7.93;83.84
41688;BME280;27371;42.686;23.362;2022-11-11T02:00:10;164252.88;;;7.89;83.75
41688;BME280;27371;42.686;23.362;2022-11-11T02:02:51;164254.19;;;7.89;83.93
41688;BME280;27371;42.686;23.362;2022-11-11T02:05:19;164251.50;;;7.88;84.09
41688;BME280;27371;42.686;23.362;2022-11-11T02:08:10;164244.88;;;7.86;83.77
41688;BME280;27371;42.686;23.362;2022-11-11T02:10:37;164235.50;;;7.82;84.06
41688;BME280;27371;42.686;23.362;2022-11-11T02:13:07;164224.84;;;7.78;84.12
41688;BME280;27371;42.686;23.362;2022-11-11T02:15:52;164206.16;;;7.71;84.07
41688;BME280;27371;42.686;23.362;2022-11-11T02:18:18;164203.50;;;7.70;84.07
41688;BME280;27371;42.686;23.362;2022-11-11T02:20:43;164182.16;;;7.62;84.02
41688;BME280;27371;42.686;23.362;2022-11-11T02:23:21;164187.50;;;7.64;83.81
41688;BME280;27371;42.686;23.362;2022-11-11T02:25:51;164175.50;;;7.59;84.10
41688;BME280;27371;42.686;23.362;2022-11-11T02:28:19;164163.47;;;7.54;84.12
41688;BME280;27371;42.686;23.362;2022-11-11T02:30:45;164168.81;;;7.56;83.69
41688;BME280;27371;42.686;23.362;2022-11-11T02:33:11;164130.16;;;7.42;82.28
41688;BME280;27371;42.686;23.362;2022-11-11T02:35:47;164080.81;;;7.23;81.79
41688;BME280;27371;42.686;23.362;2022-11-11T02:38:21;164032.78;;;7.04;82.07
41688;BME280;27371;42.686;23.362;2022-11-11T02:40:47;164020.78;;;7.00;82.30
41688;BME280;27371;42.686;23.362;2022-11-11T02:43:32;164026.13;;;7.02;82.24
41688;BME280;27371;42.686;23.362;2022-11-11T02:45:59;164012.78;;;6.97;82.46
41688;BME280;27371;42.686;23.362;2022-11-11T02:48:26;164022.13;;;7.00;82.62
41688;BME280;27371;42.686;23.362;2022-11-11T02:50:52;164015.47;;;6.98;82.72
41688;BME280;27371;42.686;23.362;2022-11-11T02:53:17;163986.13;;;6.86;82.81
41688;BME280;27371;42.686;23.362;2022-11-11T02:55:43;163950.09;;;6.73;82.83
41688;BME280;27371;42.686;23.362;2022-11-11T02:58:09;163910.13;;;6.57;83.00
41688;BME280;27371;42.686;23.362;2022-11-11T03:00:35;163870.13;;;6.42;83.04
41688;BME280;27371;42.686;23.362;2022-11-11T03:03:00;163836.84;;;6.29;83.19
41688;BME280;27371;42.686;23.362;2022-11-11T03:05:26;163799.53;;;6.15;83.29
41688;BME280;27371;42.686;23.362;2022-11-11T03:07:51;163784.81;;;6.09;83.52
41688;BME280;27371;42.686;23.362;2022-11-11T03:10:16;163768.84;;;6.03;83.67
41688;BME280;27371;42.686;23.362;2022-11-11T03:12:42;163771.53;;;6.04;83.93
41688;BME280;27371;42.686;23.362;2022-11-11T03:15:08;163755.50;;;5.98;83.78
41688;BME280;27371;42.686;23.362;2022-11-11T03:17:33;163758.22;;;5.99;83.85
41688;BME280;27371;42.686;23.362;2022-11-11T03:23:00;163771.53;;;6.04;83.69
41688;BME280;27371;42.686;23.362;2022-11-11T03:25:26;163748.84;;;5.95;83.54
41688;BME280;27371;42.686;23.362;2022-11-11T03:28:17;163740.81;;;5.92;83.57
41688;BME280;27371;42.686;23.362;2022-11-11T03:30:45;163740.81;;;5.92;83.84
41688;BME280;27371;42.686;23.362;2022-11-11T03:33:11;163736.84;;;5.91;84.16
41688;BME280;27371;42.686;23.362;2022-11-11T03:35:37;163748.84;;;5.95;84.25
41688;BME280;27371;42.686;23.362;2022-11-11T03:38:04;163772.88;;;6.05;84.28
41688;BME280;27371;42.686;23.362;2022-11-11T03:40:56;163790.16;;;6.11;84.54
41688;BME280;27371;42.686;23.362;2022-11-11T03:43:23;163803.50;;;6.16;84.32
41688;BME280;27371;42.686;23.362;2022-11-11T03:45:56;163811.50;;;6.19;84.23
41688;BME280;27371;42.686;23.362;2022-11-11T03:48:23;163824.81;;;6.24;84.20
41688;BME280;27371;42.686;23.362;2022-11-11T03:50:49;163800.84;;;6.15;84.57
41688;BME280;27371;42.686;23.362;2022-11-11T03:53:16;163818.16;;;6.22;84.95
41688;BME280;27371;42.686;23.362;2022-11-11T03:55:44;163842.13;;;6.31;85.03
41688;BME280;27371;42.686;23.362;2022-11-11T03:58:09;163862.13;;;6.39;85.08
41688;BME280;27371;42.686;23.362;2022-11-11T04:00:35;163879.50;;;6.45;85.06
41688;BME280;27371;42.686;23.362;2022-11-11T04:03:11;163899.44;;;6.53;85.04
41688;BME280;27371;42.686;23.362;2022-11-11T04:05:56;163922.16;;;6.62;85.22
41688;BME280;27371;42.686;23.362;2022-11-11T04:08:40;163923.47;;;6.62;85.16
41688;BME280;27371;42.686;23.362;2022-11-11T04:11:27;163951.47;;;6.73;85.22
41688;BME280;27371;42.686;23.362;2022-11-11T04:13:58;163983.44;;;6.85;84.92
41688;BME280;27371;42.686;23.362;2022-11-11T04:16:44;164015.47;;;6.98;84.76
41688;BME280;27371;42.686;23.362;2022-11-11T04:19:09;164016.78;;;6.98;84.89
41688;BME280;27371;42.686;23.362;2022-11-11T04:21:53;164068.78;;;7.18;84.77
41688;BME280;27371;42.686;23.362;2022-11-11T04:24:20;164094.16;;;7.28;84.52
41688;BME280;27371;42.686;23.362;2022-11-11T04:27:24;164150.13;;;7.49;84.76
41688;BME280;27371;42.686;23.362;2022-11-11T04:29:49;164183.47;;;7.62;84.70
41688;BME280;27371;42.686;23.362;2022-11-11T04:32:18;164211.50;;;7.73;85.08
41688;BME280;27371;42.686;23.362;2022-11-11T04:35:03;164238.19;;;7.83;85.68
41688;BME280;27371;42.686;23.362;2022-11-11T04:37:34;164280.91;;;7.99;86.27
41688;BME280;27371;42.686;23.362;2022-11-11T04:40:00;164284.88;;;8.01;86.48
41688;BME280;27371;42.686;23.362;2022-11-11T04:42:44;164299.53;;;8.07;87.05
41688;BME280;27371;42.686;23.362;2022-11-11T04:45:11;164339.59;;;8.22;88.05
41688;BME280;27371;42.686;23.362;2022-11-11T04:48:13;164387.66;;;8.40;88.66
41688;BME280;27371;42.686;23.362;2022-11-11T04:50:41;164439.75;;;8.60;89.84
41688;BME280;27371;42.686;23.362;2022-11-11T04:53:08;164454.41;;;8.66;90.21
41688;BME280;27371;42.686;23.362;2022-11-11T04:55:38;164491.78;;;8.80;90.73
41688;BME280;27371;42.686;23.362;2022-11-11T04:58:24;164517.13;;;8.90;91.16
41688;BME280;27371;42.686;23.362;2022-11-11T05:00:50;164530.47;;;8.95;92.36
41688;BME280;27371;42.686;23.362;2022-11-11T05:03:17;164558.53;;;9.06;92.58
41688;BME280;27371;42.686;23.362;2022-11-11T05:05:52;164574.53;;;9.12;93.17
41688;BME280;27371;42.686;23.362;2022-11-11T05:08:47;164609.25;;;9.25;94.08
41688;BME280;27371;42.686;23.362;2022-11-11T05:13:52;164733.44;;;9.73;94.94
41688;BME280;27371;42.686;23.362;2022-11-11T05:16:38;164764.19;;;9.85;92.95
41688;BME280;27371;42.686;23.362;2022-11-11T05:19:23;164774.84;;;9.89;92.27
41688;BME280;27371;42.686;23.362;2022-11-11T05:24:41;164809.59;;;10.02;90.88
41688;BME280;27371;42.686;23.362;2022-11-11T05:27:25;164818.94;;;10.06;90.31
41688;BME280;27371;42.686;23.362;2022-11-11T05:29:51;164828.31;;;10.09;90.06
41688;BME280;27371;42.686;23.362;2022-11-11T05:32:20;164836.34;;;10.12;89.77
41688;BME280;27371;42.686;23.362;2022-11-11T05:34:46;164855.00;;;10.19;89.38
41688;BME280;27371;42.686;23.362;2022-11-11T05:37:12;164855.00;;;10.19;89.05
41688;BME280;27371;42.686;23.362;2022-11-11T05:39:38;164856.34;;;10.20;88.70
41688;BME280;27371;42.686;23.362;2022-11-11T05:42:03;164860.34;;;10.21;88.33
41688;BME280;27371;42.686;23.362;2022-11-11T05:44:29;164863.00;;;10.22;87.86
41688;BME280;27371;42.686;23.362;2022-11-11T05:46:54;164837.66;;;10.13;86.37
41688;BME280;27371;42.686;23.362;2022-11-11T05:49:20;164809.59;;;10.02;85.72
41688;BME280;27371;42.686;23.362;2022-11-11T05:51:46;164778.88;;;9.90;85.16
41688;BME280;27371;42.686;23.362;2022-11-11T05:54:12;164772.22;;;9.88;85.03
41688;BME280;27371;42.686;23.362;2022-11-11T05:56:38;164778.88;;;9.90;84.93
41688;BME280;27371;42.686;23.362;2022-11-11T05:59:04;164756.19;;;9.81;84.30
41688;BME280;27371;42.686;23.362;2022-11-11T06:01:30;164722.78;;;9.69;83.18
41688;BME280;27371;42.686;23.362;2022-11-11T06:03:56;164689.38;;;9.56;82.60
41688;BME280;27371;42.686;23.362;2022-11-11T06:06:21;164666.69;;;9.47;81.89
41688;BME280;27371;42.686;23.362;2022-11-11T06:08:47;164627.97;;;9.32;80.57
41688;BME280;27371;42.686;23.362;2022-11-11T06:11:12;164593.25;;;9.19;80.45
41688;BME280;27371;42.686;23.362;2022-11-11T06:13:38;164574.53;;;9.12;80.74
41688;BME280;27371;42.686;23.362;2022-11-11T06:16:03;164574.53;;;9.12;81.18
41688;BME280;27371;42.686;23.362;2022-11-11T06:18:29;164571.88;;;9.11;81.80
41688;BME280;27371;42.686;23.362;2022-11-11T06:20:55;164577.22;;;9.13;82.28
41688;BME280;27371;42.686;23.362;2022-11-11T06:23:22;164614.59;;;9.27;83.06
41688;BME280;27371;42.686;23.362;2022-11-11T06:25:48;164623.94;;;9.31;83.55
41688;BME280;27371;42.686;23.362;2022-11-11T06:28:32;164652.00;;;9.42;83.63
41688;BME280;27371;42.686;23.362;2022-11-11T06:30:58;164656.03;;;9.43;83.77
41688;BME280;27371;42.686;23.362;2022-11-11T06:33:23;164674.69;;;9.50;83.84
41688;BME280;27371;42.686;23.362;2022-11-11T06:35:51;164685.41;;;9.54;84.90
41688;BME280;27371;42.686;23.362;2022-11-11T06:38:17;164720.13;;;9.68;85.66
41688;BME280;27371;42.686;23.362;2022-11-11T06:40:43;164736.13;;;9.74;86.03
41688;BME280;27371;42.686;23.362;2022-11-11T06:43:09;164778.88;;;9.90;86.48
41688;BME280;27371;42.686;23.362;2022-11-11T06:45:35;164789.56;;;9.94;86.46
41688;BME280;27371;42.686;23.362;2022-11-11T06:48:05;164810.94;;;10.02;86.40
41688;BME280;27371;42.686;23.362;2022-11-11T06:50:34;164824.28;;;10.08;86.52
41688;BME280;27371;42.686;23.362;2022-11-11T06:53:11;164832.28;;;10.11;86.26
41688;BME280;27371;42.686;23.362;2022-11-11T06:55:37;164840.31;;;10.14;86.12
41688;BME280;27371;42.686;23.362;2022-11-11T06:58:06;164845.66;;;10.16;86.38
41688;BME280;27371;42.686;23.362;2022-11-11T07:00:33;164853.69;;;10.19;86.38
41688;BME280;27371;42.686;23.362;2022-11-11T07:03:00;164864.41;;;10.23;86.50
41688;BME280;27371;42.686;23.362;2022-11-11T07:05:25;164875.09;;;10.27;86.84
41688;BME280;27371;42.686;23.362;2022-11-11T07:07:51;164867.03;;;10.24;86.69
41688;BME280;27371;42.686;23.362;2022-11-11T07:10:16;164877.75;;;10.28;86.89
41688;BME280;27371;42.686;23.362;2022-11-11T07:12:42;164879.13;;;10.29;86.52
41688;BME280;27371;42.686;23.362;2022-11-11T07:15:09;164883.13;;;10.30;86.89
41688;BME280;27371;42.686;23.362;2022-11-11T07:17:34;164881.78;;;10.30;86.90
41688;BME280;27371;42.686;23.362;2022-11-11T07:20:00;164881.78;;;10.30;86.58
41688;BME280;27371;42.686;23.362;2022-11-11T07:22:25;164883.13;;;10.30;86.63
41688;BME280;27371;42.686;23.362;2022-11-11T07:24:51;164876.44;;;10.28;86.52
41688;BME280;27371;42.686;23.362;2022-11-11T07:27:16;164899.13;;;10.36;86.61
41688;BME280;27371;42.686;23.362;2022-11-11T07:29:42;164908.53;;;10.40;86.19
41688;BME280;27371;42.686;23.362;2022-11-11T07:32:07;164909.84;;;10.40;86.06
41688;BME280;27371;42.686;23.362;2022-11-11T07:34:33;164916.53;;;10.43;85.79
41688;BME280;27371;42.686;23.362;2022-11-11T07:36:58;164916.53;;;10.43;85.51
41688;BME280;27371;42.686;23.362;2022-11-11T07:39:24;164921.91;;;10.45;85.63
41688;BME280;27371;42.686;23.362;2022-11-11T07:41:50;164927.22;;;10.47;85.22
41688;BME280;27371;42.686;23.362;2022-11-11T07:44:15;164919.19;;;10.44;85.24
41688;BME280;27371;42.686;23.362;2022-11-11T07:46:40;164939.25;;;10.52;85.19
41688;BME280;27371;42.686;23.362;2022-11-11T07:49:06;164957.97;;;10.59;84.87
41688;BME280;27371;42.686;23.362;2022-11-11T07:51:32;164949.91;;;10.56;84.68
41688;BME280;27371;42.686;23.362;2022-11-11T07:53:57;164968.63;;;10.63;84.29
41688;BME280;27371;42.686;23.362;2022-11-11T07:56:22;164972.69;;;10.64;83.85
41688;BME280;27371;42.686;23.362;2022-11-11T07:58:48;164974.00;;;10.65;83.82
41688;BME280;27371;42.686;23.362;2022-11-11T08:01:13;164967.31;;;10.62;83.43
41688;BME280;27371;42.686;23.362;2022-11-11T08:03:39;164972.69;;;10.64;83.30
41688;BME280;27371;42.686;23.362;2022-11-11T08:06:20;164966.00;;;10.62;83.25
41688;BME280;27371;42.686;23.362;2022-11-11T08:08:47;164948.59;;;10.55;83.42
41688;BME280;27371;42.686;23.362;2022-11-11T08:11:13;164948.59;;;10.55;83.32
41688;BME280;27371;42.686;23.362;2022-11-11T08:13:39;164936.59;;;10.51;83.33
41688;BME280;27371;42.686;23.362;2022-11-11T08:16:09;164949.91;;;10.56;83.32
41688;BME280;27371;42.686;23.362;2022-11-11T08:18:35;164945.94;;;10.54;83.38
41688;BME280;27371;42.686;23.362;2022-11-11T08:21:01;164960.63;;;10.60;83.35
41688;BME280;27371;42.686;23.362;2022-11-11T08:23:27;164963.28;;;10.61;83.26
41688;BME280;27371;42.686;23.362;2022-11-11T08:26:04;164982.00;;;10.68;82.95
41688;BME280;27371;42.686;23.362;2022-11-11T08:28:32;164994.06;;;10.73;82.51
41688;BME280;27371;42.686;23.362;2022-11-11T08:30:59;165003.41;;;10.76;82.47
41688;BME280;27371;42.686;23.362;2022-11-11T08:33:25;165034.13;;;10.88;81.90
41688;BME280;27371;42.686;23.362;2022-11-11T08:35:51;165058.16;;;10.97;81.59
41688;BME280;27371;42.686;23.362;2022-11-11T08:38:20;165083.59;;;11.07;81.50
41688;BME280;27371;42.686;23.362;2022-11-11T08:40:47;165114.31;;;11.19;80.98
41688;BME280;27371;42.686;23.362;2022-11-11T08:43:12;165130.41;;;11.25;80.08
41688;BME280;27371;42.686;23.362;2022-11-11T08:45:38;165137.03;;;11.27;79.92
41688;BME280;27371;42.686;23.362;2022-11-11T08:48:04;165153.13;;;11.33;79.31
41688;BME280;27371;42.686;23.362;2022-11-11T08:50:30;165167.81;;;11.39;78.86
41688;BME280;27371;42.686;23.362;2022-11-11T08:52:55;165179.81;;;11.44;78.54
41688;BME280;27371;42.686;23.362;2022-11-11T08:55:21;165213.28;;;11.56;78.00
41688;BME280;27371;42.686;23.362;2022-11-11T08:57:46;165233.34;;;11.64;77.21
41688;BME280;27371;42.686;23.362;2022-11-11T09:00:13;165253.41;;;11.72;76.87
41688;BME280;27371;42.686;23.362;2022-11-11T09:02:38;165264.09;;;11.76;76.57
41688;BME280;27371;42.686;23.362;2022-11-11T09:05:04;165297.59;;;11.89;76.02
41688;BME280;27371;42.686;23.362;2022-11-11T09:07:31;165290.88;;;11.86;75.52
41688;BME280;27371;42.686;23.362;2022-11-11T09:09:56;165289.56;;;11.86;75.34
41688;BME280;27371;42.686;23.362;2022-11-11T09:12:22;165293.56;;;11.87;75.48
41688;BME280;27371;42.686;23.362;2022-11-11T09:14:48;165304.28;;;11.91;75.02
41688;BME280;27371;42.686;23.362;2022-11-11T09:17:14;165330.97;;;12.01;75.02
41688;BME280;27371;42.686;23.362;2022-11-11T09:19:40;165339.00;;;12.04;74.55
41688;BME280;27371;42.686;23.362;2022-11-11T09:22:05;165357.75;;;12.12;74.33
41688;BME280;27371;42.686;23.362;2022-11-11T09:24:31;165361.78;;;12.13;73.65
41688;BME280;27371;42.686;23.362;2022-11-11T09:26:56;165357.75;;;12.12;73.34
41688;BME280;27371;42.686;23.362;2022-11-11T09:29:22;165361.78;;;12.13;72.65
41688;BME280;27371;42.686;23.362;2022-11-11T09:31:47;165368.47;;;12.16;72.41
41688;BME280;27371;42.686;23.362;2022-11-11T09:34:13;165364.44;;;12.14;72.55
41688;BME280;27371;42.686;23.362;2022-11-11T09:36:39;165376.50;;;12.19;72.33
41688;BME280;27371;42.686;23.362;2022-11-11T09:39:05;165369.81;;;12.16;71.56
41688;BME280;27371;42.686;23.362;2022-11-11T09:42:07;165380.47;;;12.20;71.14
41688;BME280;27371;42.686;23.362;2022-11-11T09:47:20;165391.22;;;12.24;70.67
41688;BME280;27371;42.686;23.362;2022-11-11T09:50:03;165403.22;;;12.29;70.42
41688;BME280;27371;42.686;23.362;2022-11-11T09:52:41;165389.88;;;12.24;69.88
41688;BME280;27371;42.686;23.362;2022-11-11T09:57:44;165440.72;;;12.43;69.79
41688;BME280;27371;42.686;23.362;2022-11-11T10:00:19;165464.78;;;12.53;69.40
41688;BME280;27371;42.686;23.362;2022-11-11T10:02:49;165483.53;;;12.60;68.76
41688;BME280;27371;42.686;23.362;2022-11-11T10:05:23;165495.53;;;12.64;68.76
41688;BME280;27371;42.686;23.362;2022-11-11T10:08:04;165519.66;;;12.74;68.45
41688;BME280;27371;42.686;23.362;2022-11-11T10:10:48;165543.72;;;12.83;68.00
41688;BME280;27371;42.686;23.362;2022-11-11T10:13:22;165559.75;;;12.89;67.46
41688;BME280;27371;42.686;23.362;2022-11-11T10:16:00;165551.75;;;12.86;66.94
41688;BME280;27371;42.686;23.362;2022-11-11T10:18:56;165539.69;;;12.81;66.68
41688;BME280;27371;42.686;23.362;2022-11-11T10:21:40;165508.91;;;12.69;66.97
41688;BME280;27371;42.686;23.362;2022-11-11T10:24:15;165500.91;;;12.66;67.02
41688;BME280;27371;42.686;23.362;2022-11-11T10:26:43;165492.88;;;12.63;67.02
41688;BME280;27371;42.686;23.362;2022-11-11T10:29:17;165464.78;;;12.53;67.32
41688;BME280;27371;42.686;23.362;2022-11-11T10:31:44;165464.78;;;12.53;67.42
41688;BME280;27371;42.686;23.362;2022-11-11T10:34:13;165466.09;;;12.53;67.86
41688;BME280;27371;42.686;23.362;2022-11-11T10:36:47;165470.13;;;12.55;67.84
41688;BME280;27371;42.686;23.362;2022-11-11T10:39:19;165472.81;;;12.56;67.91
41688;BME280;27371;42.686;23.362;2022-11-11T10:41:49;165471.47;;;12.55;67.78
41688;BME280;27371;42.686;23.362;2022-11-11T10:44:30;165467.44;;;12.54;67.96
41688;BME280;27371;42.686;23.362;2022-11-11T10:47:11;165446.03;;;12.45;67.79
41688;BME280;27371;42.686;23.362;2022-11-11T10:49:59;165442.03;;;12.44;67.58
41688;BME280;27371;42.686;23.362;2022-11-11T10:52:33;165435.34;;;12.41;67.46
41688;BME280;27371;42.686;23.362;2022-11-11T10:55:04;165434.03;;;12.41;67.12
41688;BME280;27371;42.686;23.362;2022-11-11T10:57:45;165431.31;;;12.40;66.42
41688;BME280;27371;42.686;23.362;2022-11-11T11:00:13;165440.72;;;12.43;66.09
41688;BME280;27371;42.686;23.362;2022-11-11T11:05:50;165447.34;;;12.46;65.18
41688;BME280;27371;42.686;23.362;2022-11-11T11:08:32;165466.09;;;12.53;64.90
41688;BME280;27371;42.686;23.362;2022-11-11T11:11:04;165486.19;;;12.61;64.65
41688;BME280;27371;42.686;23.362;2022-11-11T11:17:26;165546.38;;;12.84;63.47
41688;BME280;27371;42.686;23.362;2022-11-11T11:23:04;165561.09;;;12.89;62.49
41688;BME280;27371;42.686;23.362;2022-11-11T11:25:31;165557.09;;;12.88;62.30
41688;BME280;27371;42.686;23.362;2022-11-11T11:28:10;165573.16;;;12.94;62.20
41688;BME280;27371;42.686;23.362;2022-11-11T11:30:36;165589.19;;;13.00;61.45
41688;BME280;27371;42.686;23.362;2022-11-11T11:33:04;165595.91;;;13.03;60.64
41688;BME280;27371;42.686;23.362;2022-11-11T11:37:56;165619.97;;;13.12;60.23
41688;BME280;27371;42.686;23.362;2022-11-11T11:40:21;165633.34;;;13.17;59.81
41688;BME280;27371;42.686;23.362;2022-11-11T11:42:46;165632.03;;;13.17;59.15
41688;BME280;27371;42.686;23.362;2022-11-11T11:45:26;165636.06;;;13.18;59.57
41688;BME280;27371;42.686;23.362;2022-11-11T11:48:25;165646.75;;;13.22;59.59
41688;BME280;27371;42.686;23.362;2022-11-11T12:15:45;165582.50;;;12.98;59.41
41688;BME280;27371;42.686;23.362;2022-11-11T12:21:13;165602.59;;;13.05;59.13
41688;BME280;27371;42.686;23.362;2022-11-11T12:24:03;165613.31;;;13.09;59.03
41688;BME280;27371;42.686;23.362;2022-11-11T12:26:54;165611.94;;;13.09;58.56
41688;BME280;27371;42.686;23.362;2022-11-11T12:37:49;165609.28;;;13.08;58.27
41688;BME280;27371;42.686;23.362;2022-11-11T12:45:51;165594.56;;;13.02;57.88
41688;BME280;27371;42.686;23.362;2022-11-11T12:53:35;165581.19;;;12.97;59.13
41688;BME280;27371;42.686;23.362;2022-11-11T12:59:31;165586.53;;;12.99;59.55
41688;BME280;27371;42.686;23.362;2022-11-11T13:10:33;165554.41;;;12.87;59.88
41688;BME280;27371;42.686;23.362;2022-11-11T13:15:33;165535.69;;;12.80;60.16
41688;BME280;27371;42.686;23.362;2022-11-11T13:17:59;165531.66;;;12.78;60.08
41688;BME280;27371;42.686;23.362;2022-11-11T13:20:52;165538.34;;;12.81;60.29
41688;BME280;27371;42.686;23.362;2022-11-11T13:23:21;165533.00;;;12.79;60.07
41688;BME280;27371;42.686;23.362;2022-11-11T13:25:49;165519.66;;;12.74;60.33
41688;BME280;27371;42.686;23.362;2022-11-11T13:28:26;165515.63;;;12.72;60.33
41688;BME280;27371;42.686;23.362;2022-11-11T13:33:38;165507.59;;;12.69;60.60
41688;BME280;27371;42.686;23.362;2022-11-11T13:36:07;165502.22;;;12.67;60.62
41688;BME280;27371;42.686;23.362;2022-11-11T13:38:36;165496.88;;;12.65;60.67
41688;BME280;27371;42.686;23.362;2022-11-11T13:41:05;165487.50;;;12.61;60.73
41688;BME280;27371;42.686;23.362;2022-11-11T13:43:43;165480.81;;;12.59;60.49
41688;BME280;27371;42.686;23.362;2022-11-11T13:48:53;165476.84;;;12.57;60.43
41688;BME280;27371;42.686;23.362;2022-11-11T13:53:52;165484.84;;;12.60;60.58
41688;BME280;27371;42.686;23.362;2022-11-11T13:56:27;165486.19;;;12.61;60.46
41688;BME280;27371;42.686;23.362;2022-11-11T13:58:58;165476.84;;;12.57;60.57
41688;BME280;27371;42.686;23.362;2022-11-11T14:01:24;165454.03;;;12.48;60.83
41688;BME280;27371;42.686;23.362;2022-11-11T14:04:00;165459.41;;;12.51;60.78
41688;BME280;27371;42.686;23.362;2022-11-11T14:08:52;165450.06;;;12.47;61.40
41688;BME280;27371;42.686;23.362;2022-11-11T14:13:52;165446.03;;;12.45;61.99
41688;BME280;27371;42.686;23.362;2022-11-11T14:19:26;165417.94;;;12.35;62.02
41688;BME280;27371;42.686;23.362;2022-11-11T14:21:58;165416.59;;;12.34;62.54
41688;BME280;27371;42.686;23.362;2022-11-11T14:24:42;165412.63;;;12.33;63.27
41688;BME280;27371;42.686;23.362;2022-11-11T14:29:37;165381.81;;;12.21;63.89
41688;BME280;27371;42.686;23.362;2022-11-11T14:40:10;165365.78;;;12.15;65.05
41688;BME280;27371;42.686;23.362;2022-11-11T14:45:04;165340.38;;;12.05;65.25
41688;BME280;27371;42.686;23.362;2022-11-11T14:47:49;165343.03;;;12.06;65.13
41688;BME280;27371;42.686;23.362;2022-11-11T14:53:19;165347.06;;;12.08;65.25
41688;BME280;27371;42.686;23.362;2022-11-11T14:55:51;165359.06;;;12.12;65.02
41688;BME280;27371;42.686;23.362;2022-11-11T14:58:32;165353.78;;;12.10;65.05
41688;BME280;27371;42.686;23.362;2022-11-11T15:01:15;165364.44;;;12.14;65.30
41688;BME280;27371;42.686;23.362;2022-11-11T15:03:44;165349.72;;;12.09;65.23
41688;BME280;27371;42.686;23.362;2022-11-11T15:06:27;165355.09;;;12.11;65.38
41688;BME280;27371;42.686;23.362;2022-11-11T15:14:25;165351.06;;;12.09;65.15
41688;BME280;27371;42.686;23.362;2022-11-11T15:17:14;165341.72;;;12.06;65.32
41688;BME280;27371;42.686;23.362;2022-11-11T15:20:00;165330.97;;;12.01;65.35
41688;BME280;27371;42.686;23.362;2022-11-11T15:25:47;165302.91;;;11.91;65.27
41688;BME280;27371;42.686;23.362;2022-11-11T15:28:32;165292.22;;;11.87;65.39